Time;durP1;ratioP1;P1;durP2;ratioP2;P2;SDS_P1;SDS_P2;PMS_P1;PMS_P2;Temp;Humidity;BMP_temperature;BMP_pressure;BME280_temperature;BME280_humidity;BME280_pressure;Samples;Min_cycle;Max_cycle;Signal;HPM_P1;HPM_P2
2022/12/17 13:06:40;;;;;;;30.80;13.23;;;1.50;93.50;;;;;;6310938;22;20026;-88
2022/12/17 13:09:17;;;;;;;31.63;13.23;;;1.50;93.50;;;;;;6311254;22;20023;-88
2022/12/17 13:11:52;;;;;;;28.30;12.33;;;1.50;93.60;;;;;;6285682;22;20042;-89
2022/12/17 13:14:25;;;;;;;24.97;11.60;;;1.50;93.60;;;;;;6285512;22;20015;-87
2022/12/17 13:17:00;;;;;;;25.07;11.20;;;1.50;93.70;;;;;;6285656;22;20060;-85
2022/12/17 13:19:33;;;;;;;26.27;11.80;;;1.50;93.70;;;;;;6284794;22;20027;-86
2022/12/17 13:22:15;;;;;;;25.17;10.40;;;1.50;93.70;;;;;;6285212;22;20019;-85
2022/12/17 13:24:53;;;;;;;27.00;12.07;;;1.50;93.70;;;;;;6287044;22;20010;-88
2022/12/17 13:27:30;;;;;;;25.20;10.70;;;1.50;93.70;;;;;;6286027;22;20019;-87
2022/12/17 13:30:16;;;;;;;22.92;9.52;;;1.50;93.70;;;;;;6285331;22;20072;-82
2022/12/17 13:32:47;;;;;;;25.10;10.93;;;1.50;93.70;;;;;;6284483;22;20027;-86
2022/12/17 13:35:23;;;;;;;;;;;1.50;93.70;;;;;;6285297;22;20044;-89
2022/12/17 13:38:25;;;;;;;21.93;9.60;;;1.40;93.70;;;;;;6285918;22;19915;-88
2022/12/17 13:41:06;;;;;;;20.63;8.50;;;1.40;93.70;;;;;;6284849;22;20360;-87
2022/12/17 13:43:48;;;;;;;32.67;13.17;;;1.40;93.70;;;;;;6285473;22;20084;-86
2022/12/17 13:46:39;;;;;;;;;;;;;;;;;;;;;
2022/12/17 13:49:32;;;;;;;33.27;16.43;;;1.30;93.60;;;;;;6300465;22;20010;-84
2022/12/17 13:52:05;;;;;;;34.43;15.80;;;1.20;93.60;;;;;;6260968;22;20022;-85
2022/12/17 13:54:38;;;;;;;30.03;14.17;;;1.20;93.60;;;;;;6286659;22;20019;-85
2022/12/17 13:57:32;;;;;;;30.20;13.47;;;1.10;93.60;;;;;;6286417;22;20015;-93
2022/12/17 14:00:03;;;;;;;25.93;11.03;;;1.20;93.60;;;;;;6286598;22;20408;-90
2022/12/17 14:02:40;;;;;;;26.90;11.47;;;1.20;93.70;;;;;;6313741;22;20018;-88
2022/12/17 14:05:23;;;;;;;24.20;9.53;;;1.20;93.70;;;;;;6261364;22;20015;-90
2022/12/17 14:07:52;;;;;;;26.73;10.67;;;1.20;94.00;;;;;;6285977;22;20444;-86
2022/12/17 14:10:26;;;;;;;25.88;10.80;;;1.30;93.80;;;;;;6286663;22;20361;-88
2022/12/17 14:13:11;;;;;;;26.83;11.67;;;1.20;93.70;;;;;;6285906;22;20018;-89
2022/12/17 14:15:45;;;;;;;37.20;14.80;;;1.20;93.70;;;;;;6285933;22;20025;-91
2022/12/17 14:18:18;;;;;;;29.45;12.77;;;1.10;93.60;;;;;;6286430;22;20015;-88
2022/12/17 14:20:46;;;;;;;28.80;12.33;;;1.10;93.60;;;;;;6285685;22;20037;-87
2022/12/17 14:23:21;;;;;;;27.43;12.47;;;1.00;93.70;;;;;;6260584;22;20042;-88
2022/12/17 14:25:49;;;;;;;24.10;11.80;;;1.00;93.70;;;;;;6286645;22;20030;-89
2022/12/17 14:28:41;;;;;;;26.77;11.18;;;1.00;93.80;;;;;;6285941;22;20053;-88
2022/12/17 14:31:24;;;;;;;29.37;11.50;;;1.00;93.80;;;;;;6269955;22;20022;-88
2022/12/17 14:34:09;;;;;;;35.30;15.17;;;1.00;93.70;;;;;;6286994;22;20047;-89
2022/12/17 14:36:40;;;;;;;34.67;13.93;;;0.90;93.70;;;;;;6287437;22;20467;-85
2022/12/17 14:39:27;;;;;;;32.63;12.00;;;0.90;93.70;;;;;;6286797;22;20015;-88
2022/12/17 14:42:25;;;;;;;26.97;11.20;;;0.90;93.70;;;;;;6287289;22;20436;-90
2022/12/17 14:44:57;;;;;;;34.60;14.37;;;0.90;93.80;;;;;;6286852;22;20030;-86
2022/12/17 14:47:29;;;;;;;31.10;12.80;;;0.80;93.70;;;;;;6286010;22;20062;-86
2022/12/17 14:49:59;;;;;;;26.80;11.03;;;0.80;93.80;;;;;;6286276;22;20456;-83
2022/12/17 14:52:36;;;;;;;26.20;10.50;;;0.70;93.80;;;;;;6286471;22;20019;-87
2022/12/17 14:55:38;;;;;;;22.47;9.63;;;0.70;93.90;;;;;;6286985;22;20034;-88
2022/12/17 14:58:13;;;;;;;33.13;14.20;;;0.80;93.90;;;;;;6288342;22;20015;-88
2022/12/17 15:00:52;;;;;;;32.50;13.70;;;0.70;93.80;;;;;;6288135;22;20290;-91
2022/12/17 15:03:24;;;;;;;30.10;12.37;;;0.70;93.80;;;;;;6287136;22;20022;-88
2022/12/17 15:05:57;;;;;;;31.20;13.43;;;0.60;93.90;;;;;;6286309;22;20045;-85
2022/12/17 15:08:27;;;;;;;31.17;13.23;;;0.60;93.90;;;;;;6286188;22;20026;-86
2022/12/17 15:10:58;;;;;;;28.20;13.50;;;0.60;93.90;;;;;;6312634;22;20437;-84
2022/12/17 15:13:25;;;;;;;27.40;12.60;;;0.60;93.90;;;;;;6285713;22;20011;-83
2022/12/17 15:15:52;;;;;;;25.83;12.33;;;0.50;94.00;;;;;;6261207;22;20023;-84
2022/12/17 15:18:20;;;;;;;33.30;13.37;;;0.50;94.00;;;;;;6261223;22;20018;-86
2022/12/17 15:20:47;;;;;;;33.17;14.83;;;0.50;93.90;;;;;;6260768;22;20105;-83
2022/12/17 15:23:17;;;;;;;39.07;16.67;;;0.40;93.80;;;;;;6285778;22;20045;-84
2022/12/17 15:25:46;;;;;;;36.47;14.80;;;0.30;93.80;;;;;;6260408;22;20043;-85
2022/12/17 15:28:14;;;;;;;32.07;14.97;;;0.30;93.90;;;;;;6311506;22;20015;-85
2022/12/17 15:30:43;;;;;;;35.00;14.20;;;0.30;94.00;;;;;;6286058;22;20053;-85
2022/12/17 15:33:12;;;;;;;30.37;11.97;;;0.30;94.00;;;;;;6285983;22;20064;-84
2022/12/17 15:35:39;;;;;;;26.87;11.47;;;0.30;94.00;;;;;;6261235;22;20341;-83
2022/12/17 15:38:10;;;;;;;28.80;12.80;;;0.30;94.30;;;;;;6260561;22;20429;-84
2022/12/17 15:40:37;;;;;;;27.20;12.03;;;0.40;94.00;;;;;;6311454;22;20018;-83
2022/12/17 15:43:10;;;;;;;27.73;12.40;;;0.30;94.00;;;;;;6260495;22;20019;-85
2022/12/17 15:45:48;;;;;;;31.17;13.50;;;0.30;94.00;;;;;;6310887;22;20098;-84
2022/12/17 15:48:18;;;;;;;29.20;13.90;;;0.30;94.00;;;;;;6285718;22;20353;-83
2022/12/17 15:50:45;;;;;;;37.87;15.93;;;0.30;94.00;;;;;;6260537;22;20014;-83
2022/12/17 15:53:23;;;;;;;32.10;14.60;;;0.20;94.20;;;;;;6260984;22;20019;-90
2022/12/17 15:55:59;;;;;;;37.67;16.27;;;0.10;93.90;;;;;;6266401;22;20023;-88
2022/12/17 15:58:29;;;;;;;37.50;16.57;;;0.10;93.90;;;;;;6312529;22;20025;-84
2022/12/17 16:00:59;;;;;;;35.30;14.37;;;0.10;94.00;;;;;;6261278;22;20018;-90
2022/12/17 16:03:26;;;;;;;33.40;14.43;;;0.00;93.90;;;;;;6286372;22;20464;-85
2022/12/17 16:05:53;;;;;;;27.40;12.80;;;0.00;94.00;;;;;;6235028;22;20015;-89
2022/12/17 16:08:30;;;;;;;37.03;15.73;;;0.10;94.00;;;;;;6286953;22;20018;-87
2022/12/17 16:11:10;;;;;;;31.20;13.47;;;0.00;93.90;;;;;;6287763;22;20053;-86
2022/12/17 16:13:38;;;;;;;32.80;14.63;;;0.00;94.00;;;;;;6285577;22;20026;-85
2022/12/17 16:16:43;;;;;;;39.57;16.70;;;0.00;94.00;;;;;;6285403;22;20022;-86
2022/12/17 16:19:22;;;;;;;36.03;16.90;;;0.00;93.90;;;;;;6287495;22;20072;-86
2022/12/17 16:22:03;;;;;;;33.40;16.17;;;0.00;93.90;;;;;;6266001;22;20014;-87
2022/12/17 16:24:51;;;;;;;39.10;16.93;;;0.00;93.90;;;;;;6288687;22;20042;-90
2022/12/17 16:28:53;;;;;;;32.70;13.93;;;-0.10;93.90;;;;;;6189734;23;20024;-89
2022/12/17 16:31:40;;;;;;;28.23;13.07;;;0.00;94.10;;;;;;6101029;23;20089;-88
2022/12/17 16:34:12;;;;;;;28.33;11.97;;;0.00;94.00;;;;;;6100793;23;20025;-90
2022/12/17 16:43:59;;;;;;;30.47;13.60;;;0.00;93.90;;;;;;6188877;23;20091;-85
2022/12/17 16:46:32;;;;;;;37.60;14.80;;;-0.10;93.90;;;;;;6299398;22;20084;-88
2022/12/17 16:49:11;;;;;;;31.47;14.07;;;-0.10;93.90;;;;;;6286495;22;20018;-88
2022/12/17 16:51:41;;;;;;;38.37;17.60;;;-0.10;93.90;;;;;;6285580;22;20018;-93
2022/12/17 16:54:24;;;;;;;35.67;14.67;;;-0.20;93.90;;;;;;6261827;22;20015;-86
2022/12/17 16:57:01;;;;;;;33.10;14.17;;;-0.30;93.90;;;;;;6312097;22;20018;-86
2022/12/17 16:59:30;;;;;;;36.67;15.87;;;-0.30;94.00;;;;;;6311043;22;20023;-86
2022/12/17 17:02:24;;;;;;;;;;;;;;;;;;;;;
2022/12/17 17:05:01;;;;;;;32.67;15.80;;;-0.30;93.90;;;;;;6311405;22;20015;-88
2022/12/17 17:07:29;;;;;;;28.87;14.23;;;-0.30;94.00;;;;;;6262320;22;20030;-87
2022/12/17 17:10:00;;;;;;;28.53;13.10;;;-0.30;94.00;;;;;;6285896;22;20049;-89
2022/12/17 17:12:33;;;;;;;24.80;11.80;;;-0.20;94.00;;;;;;6260226;22;20019;-86
2022/12/17 17:15:40;;;;;;;24.83;11.17;;;-0.20;94.00;;;;;;6278811;22;20449;-85
2022/12/17 17:18:10;;;;;;;24.60;11.00;;;-0.20;94.10;;;;;;6285789;22;20022;-86
2022/12/17 17:20:37;;;;;;;26.07;12.13;;;-0.20;94.10;;;;;;6285072;22;20025;-82
2022/12/17 17:23:04;;;;;;;22.70;11.03;;;-0.20;94.00;;;;;;6234374;22;20040;-85
2022/12/17 17:25:31;;;;;;;25.80;10.20;;;-0.20;94.10;;;;;;6235624;22;20461;-85
2022/12/17 17:28:30;;;;;;;23.67;10.07;;;-0.10;94.10;;;;;;6291350;22;20018;-87
2022/12/17 17:31:10;;;;;;;25.13;10.13;;;-0.10;94.10;;;;;;6285942;22;20286;-87
2022/12/17 17:33:41;;;;;;;20.77;10.33;;;-0.10;94.10;;;;;;6284804;22;20023;-86
2022/12/17 17:36:32;;;;;;;26.30;11.23;;;-0.10;94.10;;;;;;6285150;22;20019;-87
2022/12/17 17:39:00;;;;;;;28.13;10.87;;;-0.10;94.10;;;;;;6284869;22;20360;-85
2022/12/17 17:41:54;;;;;;;19.80;7.93;;;-0.20;94.10;;;;;;6285694;22;20015;-89
2022/12/17 17:44:37;;;;;;;22.33;9.13;;;-0.10;94.10;;;;;;6280283;22;20019;-86
2022/12/17 17:47:10;;;;;;;22.27;8.13;;;-0.20;94.10;;;;;;6305237;22;20721;-85
2022/12/17 17:49:40;;;;;;;21.70;9.60;;;-0.20;94.20;;;;;;6305632;22;20019;-85
2022/12/17 17:52:10;;;;;;;25.57;9.97;;;-0.20;94.10;;;;;;6305491;22;20104;-85
2022/12/17 17:54:41;;;;;;;21.23;9.00;;;-0.20;94.20;;;;;;6279862;22;20464;-84
2022/12/17 17:57:11;;;;;;;23.53;10.90;;;-0.20;94.20;;;;;;6279483;22;20072;-85
2022/12/17 17:59:38;;;;;;;20.97;9.73;;;-0.20;94.20;;;;;;6305302;22;20352;-84
2022/12/17 18:02:16;;;;;;;;;;;;;;;;;;;;;
2022/12/17 18:04:43;;;;;;;21.63;9.73;;;-0.10;94.20;;;;;;6307671;22;20072;-84
2022/12/17 18:07:17;;;;;;;24.80;10.77;;;-0.10;94.10;;;;;;6256787;22;20027;-84
2022/12/17 18:10:02;;;;;;;20.80;9.67;;;-0.10;94.10;;;;;;6260923;22;20106;-85
2022/12/17 18:15:27;;;;;;;21.33;10.13;;;-0.30;94.20;;;;;;6307434;22;20027;-87
2022/12/17 18:22:49;;;;;;;22.70;8.50;;;-0.30;94.30;;;;;;6310503;22;20091;-89
2022/12/17 18:25:19;;;;;;;20.30;9.13;;;-0.40;94.30;;;;;;6248652;22;20022;-90
2022/12/17 18:27:52;;;;;;;;;;;-0.40;94.30;;;;;;6314175;22;20033;-86
2022/12/17 18:30:27;;;;;;;25.67;10.97;;;-0.50;94.30;;;;;;6310010;22;20247;-91
2022/12/17 18:33:03;;;;;;;24.63;9.67;;;-0.50;94.30;;;;;;6258329;22;20024;-89
2022/12/17 18:35:40;;;;;;;23.43;9.40;;;-0.50;94.30;;;;;;6308762;22;20094;-87
2022/12/17 18:38:09;;;;;;;20.23;8.87;;;-0.50;94.30;;;;;;6308411;22;20106;-88
2022/12/17 18:40:44;;;;;;;16.30;7.47;;;-0.50;94.40;;;;;;6257358;22;20019;-92
2022/12/17 18:43:21;;;;;;;19.85;9.18;;;-0.50;94.40;;;;;;6259763;22;20046;-90
2022/12/17 18:45:50;;;;;;;23.83;9.50;;;-0.50;94.40;;;;;;6307523;22;20050;-89
2022/12/17 18:49:12;;;;;;;23.37;10.47;;;-0.50;94.40;;;;;;6308218;22;20046;-88
2022/12/17 18:52:26;;;;;;;21.00;8.03;;;-0.50;94.40;;;;;;6288179;22;20449;-87
2022/12/17 18:55:12;;;;;;;18.70;8.53;;;-0.60;94.40;;;;;;6299102;22;20049;-90
2022/12/17 18:57:52;;;;;;;20.80;7.93;;;-0.60;94.40;;;;;;6308713;22;20015;-90
2022/12/17 19:00:21;;;;;;;18.13;7.70;;;-0.70;94.40;;;;;;6308978;22;20019;-90
2022/12/17 19:02:51;;;;;;;14.40;6.70;;;-0.70;94.40;;;;;;6308634;22;20015;-90
2022/12/17 19:05:33;;;;;;;21.00;9.57;;;-0.70;94.40;;;;;;6308564;22;20323;-91
2022/12/17 19:08:20;;;;;;;21.33;9.30;;;-0.70;94.40;;;;;;6286853;22;20046;-88
2022/12/17 19:11:11;;;;;;;19.83;8.90;;;-0.80;94.40;;;;;;6282888;22;20027;-90
2022/12/17 19:15:00;;;;;;;22.63;9.40;;;-0.80;94.40;;;;;;6308115;22;20019;-90
2022/12/17 19:22:41;;;;;;;26.20;11.73;;;-0.90;94.30;;;;;;6126707;23;20060;-90
2022/12/17 19:25:11;;;;;;;22.00;11.03;;;-1.00;94.20;;;;;;6101708;23;20046;-87
2022/12/17 19:27:41;;;;;;;29.10;12.20;;;-1.10;94.30;;;;;;6100748;23;20106;-85
2022/12/17 19:30:11;;;;;;;24.07;10.70;;;-1.10;94.30;;;;;;6077289;23;20368;-86
2022/12/17 19:32:42;;;;;;;25.70;9.73;;;-1.00;94.40;;;;;;6158876;23;20477;-84
2022/12/17 19:35:10;;;;;;;20.10;8.93;;;-1.00;94.40;;;;;;6213010;23;20522;-82
2022/12/17 19:37:40;;;;;;;18.50;7.67;;;-1.00;94.40;;;;;;6138958;23;20019;-84
2022/12/17 19:40:08;;;;;;;17.30;7.50;;;-0.90;94.40;;;;;;6188418;23;20063;-83
2022/12/17 19:46:55;;;;;;;17.08;7.05;;;-0.90;94.40;;;;;;6230867;23;20103;-86
2022/12/17 19:55:38;;;;;;;;;;;;;;;;;;;;;
2022/12/17 20:03:31;;;;;;;19.27;7.90;;;-1.00;94.40;;;;;;6278154;22;20029;-86
2022/12/17 20:07:11;;;;;;;18.33;7.90;;;-1.00;94.40;;;;;;6282318;22;20262;-89
2022/12/17 20:09:43;;;;;;;20.73;8.38;;;-1.10;94.40;;;;;;6278121;22;20472;-85
2022/12/17 20:12:11;;;;;;;20.07;7.83;;;-1.10;94.40;;;;;;6250395;22;20091;-86
2022/12/17 20:14:44;;;;;;;21.13;8.70;;;-1.10;94.40;;;;;;6251509;22;20042;-87
2022/12/17 20:17:24;;;;;;;21.33;9.40;;;-1.10;94.50;;;;;;6252497;22;20012;-86
2022/12/17 20:20:03;;;;;;;20.73;8.83;;;-1.00;94.50;;;;;;6251858;22;20047;-86
2022/12/17 20:22:43;;;;;;;18.00;6.20;;;-1.10;94.50;;;;;;6278886;22;20043;-87
2022/12/17 20:25:10;;;;;;;22.20;8.43;;;-1.10;94.50;;;;;;6250915;22;20022;-85
2022/12/17 20:27:40;;;;;;;19.03;7.23;;;-1.10;94.60;;;;;;6226104;22;20043;-85
2022/12/17 20:31:24;;;;;;;17.53;6.53;;;-1.10;94.60;;;;;;6275759;22;20024;-84
2022/12/17 20:34:27;;;;;;;21.53;9.17;;;-1.10;94.60;;;;;;6275880;22;20028;-84
2022/12/17 20:37:17;;;;;;;13.90;6.23;;;-1.20;94.50;;;;;;6275975;22;20074;-88
2022/12/17 20:39:44;;;;;;;18.67;8.43;;;-1.20;94.60;;;;;;6250673;22;20019;-86
2022/12/17 20:42:37;;;;;;;19.17;7.50;;;-1.20;94.60;;;;;;6252042;22;20070;-85
2022/12/17 20:45:58;;;;;;;;;;;;;;;;;;;;;
2022/12/17 20:48:50;;;;;;;20.13;7.50;;;-1.20;94.60;;;;;;6285970;22;20023;-89
2022/12/17 20:51:44;;;;;;;18.57;7.10;;;-1.20;94.60;;;;;;6307078;22;20019;-90
2022/12/17 20:54:30;;;;;;;20.13;6.93;;;-1.20;94.60;;;;;;6306460;22;20102;-86
2022/12/17 20:57:00;;;;;;;26.90;11.10;;;-1.30;94.60;;;;;;6279919;22;20515;-83
2022/12/17 20:59:34;;;;;;;25.97;10.90;;;-1.40;94.50;;;;;;6305580;22;20015;-85
2022/12/17 21:02:03;;;;;;;30.47;11.97;;;-1.50;94.50;;;;;;6280328;22;20073;-88
2022/12/17 21:04:32;;;;;;;26.27;9.97;;;-1.50;94.50;;;;;;6280945;22;20022;-85
2022/12/17 21:07:02;;;;;;;26.27;11.10;;;-1.60;94.60;;;;;;6279759;22;20102;-84
2022/12/17 21:09:29;;;;;;;22.70;9.50;;;-1.50;94.60;;;;;;6304939;22;20042;-82
2022/12/17 21:11:56;;;;;;;22.73;8.63;;;-1.50;94.70;;;;;;6304771;22;20077;-83
2022/12/17 21:14:37;;;;;;;22.58;9.52;;;-1.50;94.70;;;;;;6305073;22;20023;-85
2022/12/17 21:17:21;;;;;;;34.73;12.63;;;-1.50;94.60;;;;;;6282392;22;20027;-83
2022/12/17 21:19:51;;;;;;;28.70;11.40;;;-1.60;94.50;;;;;;6280148;22;20101;-87
2022/12/17 21:22:21;;;;;;;27.98;11.30;;;-1.60;94.60;;;;;;6256027;22;20016;-85
2022/12/17 21:24:49;;;;;;;31.40;13.40;;;-1.60;94.60;;;;;;6254833;22;20016;-84
2022/12/17 21:27:30;;;;;;;26.90;11.30;;;-1.60;94.60;;;;;;6229779;22;20039;-86
2022/12/17 21:30:00;;;;;;;24.63;10.10;;;-1.60;94.60;;;;;;6281231;22;20019;-87
2022/12/17 21:32:42;;;;;;;21.77;8.40;;;-1.60;94.60;;;;;;6283665;22;20015;-89
2022/12/17 21:35:14;;;;;;;21.60;9.83;;;-1.50;94.60;;;;;;6305927;22;20038;-92
2022/12/17 21:37:46;;;;;;;24.77;9.20;;;-1.50;94.60;;;;;;6306104;22;20019;-88
2022/12/17 21:40:17;;;;;;;27.37;9.60;;;-1.50;94.60;;;;;;6232090;22;20039;-88
2022/12/17 21:43:02;;;;;;;20.83;9.20;;;-1.40;94.60;;;;;;6255276;22;20502;-84
2022/12/17 21:45:36;;;;;;;27.43;10.97;;;-1.40;94.60;;;;;;6284683;22;20023;-86
2022/12/17 21:48:09;;;;;;;22.67;8.90;;;-1.40;94.60;;;;;;6281048;22;20092;-89
2022/12/17 21:50:44;;;;;;;25.60;10.50;;;-1.40;94.60;;;;;;6306394;22;20468;-88
2022/12/17 21:53:15;;;;;;;20.33;8.93;;;-1.40;94.60;;;;;;6256377;22;20026;-86
2022/12/17 21:55:43;;;;;;;20.83;8.77;;;-1.40;94.70;;;;;;6254767;22;20027;-86
2022/12/17 21:58:14;;;;;;;22.37;8.30;;;-1.40;94.70;;;;;;6229487;22;20015;-87
2022/12/17 22:00:41;;;;;;;23.20;9.37;;;-1.40;94.70;;;;;;6281351;22;20077;-87
2022/12/17 22:03:08;;;;;;;21.93;8.60;;;-1.40;94.70;;;;;;6280526;22;20043;-87
2022/12/17 22:05:36;;;;;;;21.90;8.30;;;-1.40;94.70;;;;;;6254313;22;20023;-83
2022/12/17 22:08:12;;;;;;;23.87;9.80;;;-1.50;94.70;;;;;;6304396;22;20531;-85
2022/12/17 22:10:41;;;;;;;23.77;10.80;;;-1.50;94.70;;;;;;6253745;22;20019;-89
2022/12/17 22:16:06;;;;;;;22.23;8.90;;;-1.60;94.80;;;;;;6283470;22;20030;-86
2022/12/17 22:18:33;;;;;;;22.17;9.37;;;-1.70;94.80;;;;;;6280011;22;20015;-86
2022/12/17 22:21:10;;;;;;;21.53;9.27;;;-1.60;94.90;;;;;;6305621;22;20088;-86
2022/12/17 22:23:37;;;;;;;25.20;11.70;;;-1.60;94.80;;;;;;6254027;22;20047;-85
2022/12/17 22:26:20;;;;;;;24.87;10.03;;;-1.60;94.80;;;;;;6254339;22;20023;-88
2022/12/17 22:29:02;;;;;;;29.70;11.67;;;-1.60;94.80;;;;;;6305472;22;20457;-86
2022/12/17 22:34:21;;;;;;;28.07;11.53;;;-1.70;94.80;;;;;;6263074;22;20475;-83
2022/12/17 22:37:08;;;;;;;33.63;12.63;;;-1.60;95.20;;;;;;6283356;22;20437;-84
2022/12/17 22:39:55;;;;;;;25.93;10.30;;;-1.50;94.70;;;;;;6242566;22;20034;-86
2022/12/17 22:45:51;;;;;;;34.13;12.33;;;-1.70;94.40;;;;;;6239230;22;1114753;-83
2022/12/17 22:48:21;;;;;;;24.13;10.30;;;-1.80;94.50;;;;;;6281951;22;20097;-82
2022/12/17 22:50:50;;;;;;;28.73;12.20;;;-1.90;94.60;;;;;;6231602;22;20020;-86
2022/12/17 22:53:36;;;;;;;29.77;11.53;;;-2.00;94.70;;;;;;6263770;22;20098;-83
2022/12/17 22:56:05;;;;;;;23.23;9.97;;;-2.10;94.80;;;;;;6232393;22;20065;-86
2022/12/17 22:58:53;;;;;;;25.80;9.70;;;-2.20;95.00;;;;;;6264187;22;20024;-83
2022/12/17 23:01:27;;;;;;;26.90;10.57;;;-2.20;95.10;;;;;;6230613;22;20015;-85
2022/12/17 23:03:58;;;;;;;24.27;9.50;;;-2.20;95.10;;;;;;6306783;22;20027;-85
2022/12/17 23:06:27;;;;;;;23.13;9.33;;;-2.20;95.10;;;;;;6281673;22;20019;-85
2022/12/17 23:08:54;;;;;;;25.50;9.20;;;-2.20;95.10;;;;;;6307124;22;20026;-85
2022/12/17 23:11:24;;;;;;;22.03;9.00;;;-2.20;95.10;;;;;;6281732;22;20039;-85
2022/12/17 23:13:52;;;;;;;21.33;8.97;;;-2.20;95.10;;;;;;6281854;22;20023;-84
2022/12/17 23:16:20;;;;;;;28.00;9.17;;;-2.20;95.10;;;;;;6306744;22;20087;-86
2022/12/17 23:18:49;;;;;;;25.00;10.50;;;-2.30;95.20;;;;;;6307425;22;20021;-86
2022/12/17 23:21:21;;;;;;;24.93;9.60;;;-2.30;95.20;;;;;;6281798;22;20102;-86
2022/12/17 23:23:54;;;;;;;24.33;10.50;;;-2.40;95.20;;;;;;6306888;22;20023;-86
2022/12/17 23:26:28;;;;;;;20.77;8.65;;;-2.40;95.30;;;;;;6281231;22;20042;-86
2022/12/17 23:29:01;;;;;;;22.10;9.97;;;-2.50;95.30;;;;;;6307117;22;20443;-88
2022/12/17 23:31:34;;;;;;;19.90;9.00;;;-2.60;95.30;;;;;;6306966;22;20045;-87
2022/12/17 23:34:03;;;;;;;22.63;10.20;;;-2.60;95.30;;;;;;6306524;22;20077;-85
2022/12/17 23:36:31;;;;;;;18.33;8.23;;;-2.70;95.40;;;;;;6307548;22;20015;-86
2022/12/17 23:39:01;;;;;;;17.63;7.23;;;-2.70;95.40;;;;;;6281513;22;20037;-86
2022/12/17 23:41:29;;;;;;;17.17;8.43;;;-2.80;95.40;;;;;;6307515;22;20034;-86
2022/12/17 23:43:59;;;;;;;20.53;9.17;;;-2.80;95.40;;;;;;6281589;22;20023;-86
2022/12/17 23:46:31;;;;;;;18.77;9.53;;;-2.80;95.50;;;;;;6281432;22;20027;-87
2022/12/17 23:49:04;;;;;;;19.52;8.32;;;-2.90;95.50;;;;;;6307611;22;20453;-87
2022/12/17 23:51:32;;;;;;;17.77;8.27;;;-2.90;95.50;;;;;;6307637;22;20030;-86
2022/12/17 23:54:01;;;;;;;17.30;7.43;;;-2.90;95.50;;;;;;6282204;22;20337;-87
2022/12/17 23:56:31;;;;;;;19.50;8.50;;;-2.90;95.50;;;;;;6307793;22;20433;-87
2022/12/17 23:59:01;;;;;;;21.57;9.50;;;-3.00;95.50;;;;;;6256849;22;20023;-88
